Station: Nuriootpa

  Atmospheric Gas Attenuation - ITU Rec 676-11   --------------- db/100km ---------------
Date Time Temp RH % AH g/m3 Dew Point Wind Direction Speed kph Gust kph Barometer mB Rainfall Since 9am 24GHz 47GHz 76GHz 122GHz 134GHz 241GHz
15 02:00 10.2 95 9.04 9.4 2 6 1016.7 3 20.7 27.9 43.7 114.8 109.6 377.1
15 01:50 10.1 95 8.99 9.3 4 6 1016.6 3 20.6 27.8 43.5 114.3 109.0 375.0
15 01:40 10.1 95 8.99 9.3 6 6 1016.5 3 20.6 27.8 43.5 114.3 109.0 375.0
15 01:30 10.1 96 9.08 9.5 7 9 1016.4 3 20.8 27.9 43.9 115.3 110.3 379.4
15 01:20 10.1 96 9.08 9.5 9 11 1016.3 3 20.8 27.9 43.9 115.3 110.2 379.4
15 01:10 10 96 9.02 9.4 6 6 1016.2 3 20.7 27.9 43.7 114.8 109.5 376.9
15 01:00 10.1 96 9.08 9.5 9 9 1016 3 20.8 27.9 43.9 115.3 110.2 379.3
15 00:50 10.3 96 9.2 9.7 11 13 1015.9 3 21.1 28.1 44.3 116.4 111.6 384.2
15 00:40 10.3 96 9.2 9.7 11 11 1016 3 21.1 28.1 44.3 116.4 111.6 384.3
15 00:30 10.2 96 9.14 9.6 9 13 1016.1 3 20.9 28.0 44.1 115.8 110.9 381.8
15 00:20 10.5 96 9.31 9.9 11 15 1016.1 3 21.3 28.2 44.7 117.3 112.9 388.8
15 00:10 10.8 97 9.59 10.3 15 17 1016.1 3 21.9 28.6 45.7 120.1 116.5 401.2
15 00:00 10.9 97 9.65 10.4 6 7 1016 3 22.0 28.7 45.9 120.7 117.1 403.6
14 23:50 10.8 97 9.59 10.3 6 6 1016 3 21.9 28.6 45.7 120.1 116.4 401.2
14 23:40 10.2 97 9.23 9.7 9 11 1016 3 21.1 28.2 44.5 116.9 112.2 386.3
14 23:30 10.4 96 9.25 9.8 0 0 1016.1 3 21.2 28.1 44.5 116.8 112.2 386.3
14 23:20 10.4 96 9.25 9.8 0 0 1016.2 3 21.2 28.1 44.5 116.8 112.2 386.3
14 23:10 10.6 96 9.37 10 0 0 1016.1 3 21.4 28.3 44.9 117.9 113.6 391.3
14 23:00 11 95 9.51 10.2 7 9 1016.1 3 21.7 28.4 45.2 118.9 115.0 396.2
14 22:50 11.2 96 9.73 10.6 4 6 1016.1 3 22.1 28.7 46.1 121.1 117.8 406.1
14 22:40 11 96 9.61 10.4 0 0 1016.1 3 21.9 28.6 45.7 120.0 116.4 401.2
14 22:30 10.9 96 9.55 10.3 0 0 1016.1 3 21.8 28.5 45.5 119.5 115.7 398.7
14 22:20 10.6 96 9.37 10 0 0 1016.1 3 21.4 28.3 44.9 117.9 113.6 391.3
14 22:10 10.9 96 9.55 10.3 0 0 1016 3 21.8 28.5 45.5 119.5 115.7 398.6
14 22:00 11 95 9.51 10.2 0 0 1016 3 21.7 28.4 45.2 118.9 115.0 396.1
14 21:50 11.3 96 9.79 10.7 0 0 1015.9 3 22.3 28.8 46.3 121.6 118.5 408.5
14 21:40 11.5 96 9.92 10.9 0 0 1015.9 3 22.5 28.9 46.7 122.8 120.1 413.9
14 21:30 11.6 95 9.88 10.8 0 0 1015.9 3 22.4 28.8 46.5 122.2 119.3 411.4
14 21:20 11.8 95 10 11 0 0 1015.9 3 22.7 29.0 46.9 123.3 120.7 416.3
14 21:10 11.9 95 10.06 11.1 0 0 1015.9 3 22.8 29.0 47.1 123.8 121.4 418.8
14 21:00 12 95 10.13 11.2 4 7 1015.9 3 23.0 29.1 47.3 124.5 122.3 421.7
14 20:50 11.9 95 10.06 11.1 6 7 1015.9 3 22.8 29.0 47.1 123.8 121.4 418.8
14 20:40 11.9 95 10.06 11.1 7 7 1015.9 3 22.8 29.0 47.1 123.8 121.4 418.8
14 20:30 11.9 95 10.06 11.1 7 7 1015.9 3 22.8 29.0 47.1 123.8 121.4 418.8
14 20:20 12 94 10.02 11.1 6 6 1015.8 3 22.7 28.9 46.8 123.2 120.7 416.2
14 20:10 12.1 94 10.08 11.2 7 7 1015.8 3 22.9 29.0 47.0 123.7 121.4 418.7
14 20:00 12.4 93 10.16 11.3 7 11 1015.8 3 23.0 29.1 47.2 124.2 122.1 421.0
14 19:50 12.6 93 10.29 11.5 11 13 1015.7 3 23.3 29.2 47.6 125.3 123.6 426.4
14 19:40 12.6 93 10.29 11.5 9 13 1015.7 3 23.3 29.2 47.6 125.3 123.6 426.4
14 19:30 12.7 92 10.24 11.4 13 17 1015.7 3 23.2 29.1 47.4 124.6 122.7 423.3
14 19:20 12.9 92 10.37 11.6 11 19 1015.6 3 23.4 29.2 47.8 125.8 124.2 428.7
14 19:10 13 92 10.43 11.7 13 15 1015.5 3 23.6 29.3 48.0 126.3 124.9 431.1
14 19:00 13.1 91 10.38 11.7 11 15 1015.4 3 23.4 29.2 47.7 125.5 124.0 428.0
14 18:50 13.2 91 10.45 11.8 9 13 1015.3 3 23.6 29.3 48.0 126.2 124.8 430.9
14 18:40 13.3 90 10.4 11.7 13 17 1015.1 3 23.5 29.1 47.7 125.4 124.0 427.8
14 18:30 13.3 90 10.4 11.7 13 15 1015.1 3 23.5 29.1 47.7 125.4 124.0 427.8
14 18:20 13.3 90 10.4 11.7 17 20 1014.9 3 23.5 29.1 47.7 125.4 123.9 427.7
14 18:10 13.2 90 10.33 11.6 13 15 1014.8 3 23.3 29.0 47.4 124.7 123.1 424.7
14 18:00 13.3 89 10.28 11.5 13 19 1014.6 3 23.2 28.9 47.1 124.0 122.2 421.7
14 17:50 13.5 89 10.41 11.7 17 22 1014.5 3 23.5 29.1 47.6 125.1 123.7 427.0
14 17:40 13.6 88 10.36 11.7 17 19 1014.4 3 23.4 28.9 47.3 124.4 122.8 423.9
14 17:30 13.6 88 10.36 11.7 17 24 1014.3 3 23.4 28.9 47.3 124.4 122.8 423.9
14 17:20 13.7 87 10.3 11.6 17 19 1014.3 3 23.2 28.8 47.0 123.5 121.8 420.4
14 17:10 13.8 85 10.13 11.3 20 22 1014.2 3 22.9 28.5 46.2 121.4 119.3 411.5
14 17:00 14.1 83 10.07 11.3 20 33 1014.1 3 22.7 28.3 45.7 120.3 118.0 406.9
14 16:50 14.2 83 10.14 11.4 24 26 1014 3 22.9 28.4 46.0 120.9 118.8 409.8
14 16:40 14.2 84 10.26 11.5 13 15 1014 3 23.1 28.6 46.5 122.2 120.4 415.6
14 16:30 13.9 84 10.07 11.2 17 26 1013.9 3 22.7 28.3 45.8 120.6 118.2 407.9
14 16:20 14 83 10.01 11.2 13 15 1013.9 3 22.6 28.2 45.5 119.7 117.3 404.5
14 16:10 14.2 81 9.89 11 24 32 1013.8 3 22.3 27.9 44.9 118.1 115.3 397.6
14 16:00 14.3 81 9.95 11.1 22 32 1013.8 3 22.5 28.0 45.1 118.6 116.0 400.0
14 15:50 14.4 82 10.14 11.4 17 22 1013.8 3 22.9 28.3 45.8 120.6 118.4 408.7
14 15:40 14.5 80 9.95 11.1 28 32 1013.8 3 22.4 27.9 45.0 118.3 115.7 399.0
14 15:30 14.6 82 10.26 11.6 28 39 1013.6 3 23.1 28.4 46.2 121.6 119.8 413.3
14 15:20 14.7 89 11.21 12.9 26 33 1013.4 3 25.1 30.0 50.2 132.2 133.0 459.4
14 15:10 14.7 91 11.46 13.2 19 26 1013.4 2.6 25.7 30.5 51.3 135.2 136.5 472.0
14 15:00 14.1 90 10.92 12.5 9 11 1013.4 2.6 24.5 29.7 49.3 129.9 129.9 448.5
14 14:50 13.9 89 10.67 12.1 19 22 1013.3 2.6 24.0 29.3 48.4 127.3 126.6 437.2
14 14:40 13.5 87 10.18 11.4 22 24 1013.2 2.2 23.0 28.6 46.5 122.3 120.3 415.2
14 14:30 13.9 91 10.91 12.5 26 30 1013 2.2 24.5 29.7 49.4 130.1 130.0 449.0
14 14:20 14.1 93 11.29 13 20 28 1013.1 2.2 25.3 30.3 50.9 134.2 135.1 466.9
14 14:10 14.1 92 11.17 12.8 11 13 1013.1 2 25.1 30.1 50.4 132.8 133.4 460.9
14 14:00 14.1 92 11.17 12.8 20 32 1013.2 2 25.1 30.1 50.4 132.8 133.4 460.9
14 13:50 14.1 92 11.17 12.8 24 30 1013.2 2 25.1 30.1 50.4 132.8 133.4 460.9
14 13:40 14 93 11.22 12.9 20 22 1013.3 2 25.2 30.3 50.7 133.6 134.3 464.1
14 13:30 13.9 93 11.15 12.8 20 30 1013.4 2 25.1 30.2 50.5 132.9 133.5 461.2
14 13:20 14 92 11.1 12.7 22 28 1013.5 1.8 24.9 30.1 50.2 132.2 132.6 458.1
14 13:10 13.9 92 11.03 12.6 22 28 1013.5 1.6 24.8 30.0 50.0 131.5 131.8 455.2
14 13:00 13.7 93 11.01 12.6 20 30 1013.6 1.4 24.8 30.0 50.0 131.7 131.9 455.4
14 12:50 13.5 92 10.76 12.2 19 20 1013.7 1.4 24.2 29.6 49.0 129.1 128.6 444.1
14 12:40 13.6 92 10.83 12.3 17 20 1013.8 1 24.4 29.7 49.3 129.7 129.5 447.1
14 12:30 13.6 92 10.83 12.3 19 26 1014 0.8 24.4 29.7 49.3 129.8 129.5 447.1
14 12:20 13.4 92 10.7 12.1 20 26 1014 0.8 24.1 29.6 48.9 128.6 128.0 441.8
14 12:10 13.5 92 10.76 12.2 17 20 1014.2 0.8 24.2 29.7 49.1 129.1 128.7 444.3
14 12:00 13.4 91 10.58 12 19 28 1014.2 0.8 23.9 29.4 48.3 127.2 126.3 435.9
14 11:50 13.6 91 10.71 12.2 22 26 1014.2 0.8 24.1 29.5 48.8 128.4 127.8 441.2
14 11:40 14 87 10.49 11.9 20 26 1014.2 0 23.6 29.0 47.6 125.2 124.0 428.0
14 11:30 13.8 87 10.37 11.7 24 30 1014.4 0 23.4 28.9 47.2 124.2 122.7 423.3
14 11:20 13.7 88 10.42 11.7 20 24 1014.6 0 23.5 29.0 47.5 124.9 123.5 426.4
14 11:10 13.6 86 10.12 11.3 26 32 1014.7 0 22.9 28.5 46.3 121.7 119.5 412.2
14 11:00 13.7 85 10.07 11.2 24 32 1014.8 0 22.7 28.4 46.0 121.0 118.6 409.3
14 10:50 13.9 84 10.07 11.2 26 35 1014.8 0 22.7 28.4 45.9 120.7 118.3 408.2
14 10:40 13.7 85 10.07 11.2 28 32 1014.9 0 22.7 28.4 46.0 121.0 118.7 409.3
14 10:30 13.5 88 10.29 11.6 20 32 1014.9 0 23.2 28.9 47.1 123.8 122.1 421.2
14 10:20 13.2 88 10.1 11.3 20 28 1015.1 0 22.8 28.7 46.4 122.1 119.9 413.5
14 10:10 13.2 87 9.99 11.1 20 24 1015.3 0 22.6 28.5 46.0 120.9 118.3 408.2
14 10:00 13.2 85 9.76 10.7 19 30 1015.2 0 22.1 28.1 45.0 118.3 115.1 396.9
14 09:50 13.3 86 9.94 11 13 17 1015.4 0 22.5 28.4 45.7 120.2 117.5 405.2
14 09:40 13 85 9.64 10.5 20 24 1015.4 0 21.9 27.9 44.6 117.3 113.8 392.2
14 09:30 12.8 88 9.86 10.9 15 20 1015.5 0 22.3 28.4 45.7 120.1 117.2 403.9

Last Refresh: 15-Jun-2024 02:11:50

Bureau of Meteorology